Time;durP1;ratioP1;P1;durP2;ratioP2;P2;SDS_P1;SDS_P2;PMS_P1;PMS_P2;Temp;Humidity;BMP_temperature;BMP_pressure;BME280_temperature;BME280_humidity;BME280_pressure;Samples;Min_cycle;Max_cycle;Signal;HPM_P1;HPM_P2
2023/04/20 00:01:33;;;;;;;;;;;7.30;99.90;;;;;;4939836;28;19926;-75
2023/04/20 00:03:59;;;;;;;;;;;7.30;99.90;;;;;;4915101;29;19914;-75
2023/04/20 00:06:28;;;;;;;;;;;7.20;99.90;;;;;;4947938;29;20320;-75
2023/04/20 00:08:54;;;;;;;;;;;7.30;99.90;;;;;;4948126;29;19918;-75
2023/04/20 00:11:19;;;;;;;;;;;7.40;99.90;;;;;;4931776;29;19972;-75
2023/04/20 00:13:45;;;;;;;;;;;7.30;99.90;;;;;;4940455;29;19919;-75
2023/04/20 00:16:11;;;;;;;;;;;7.40;99.90;;;;;;4927892;29;20638;-75
2023/04/20 00:18:37;;;;;;;;;;;7.50;99.90;;;;;;4924241;29;19953;-75
2023/04/20 00:21:04;;;;;;;;;;;7.40;99.90;;;;;;4937352;29;19914;-75
2023/04/20 00:23:30;;;;;;;;;;;7.10;99.90;;;;;;4942236;28;20296;-75
2023/04/20 00:25:56;;;;;;;;;;;7.30;99.90;;;;;;4941357;29;19977;-75
2023/04/20 00:28:21;;;;;;;;;;;7.30;99.90;;;;;;4952594;29;19914;-75
2023/04/20 00:30:47;;;;;;;;;;;7.20;99.90;;;;;;4931274;29;19915;-75
2023/04/20 00:33:13;;;;;;;;;;;7.40;99.90;;;;;;4954450;28;19922;-75
2023/04/20 00:35:38;;;;;;;;;;;7.40;99.90;;;;;;4948296;28;19925;-75
2023/04/20 00:38:04;;;;;;;;;;;7.40;99.90;;;;;;4939739;29;19925;-75
2023/04/20 00:40:30;;;;;;;;;;;7.40;99.90;;;;;;4951007;29;20343;-76
2023/04/20 00:42:56;;;;;;;;;;;7.50;99.90;;;;;;4926822;29;20343;-75
2023/04/20 00:45:21;;;;;;;;;;;7.50;99.90;;;;;;4920207;29;20030;-75
2023/04/20 00:47:47;;;;;;;;;;;7.50;99.90;;;;;;4914175;29;19910;-75
2023/04/20 00:50:14;;;;;;;;;;;7.50;99.90;;;;;;4929125;29;19926;-75
2023/04/20 00:52:40;;;;;;;;;;;7.50;99.90;;;;;;4938852;29;19911;-76
2023/04/20 00:55:05;;;;;;;;;;;7.40;99.90;;;;;;4935107;29;20005;-75
2023/04/20 00:57:33;;;;;;;;;;;7.30;99.90;;;;;;4936284;29;19950;-75
2023/04/20 01:00:00;;;;;;;;;;;7.40;99.90;;;;;;4947277;29;19910;-75
2023/04/20 01:02:26;;;;;;;;;;;7.40;99.90;;;;;;4945345;29;19914;-75
2023/04/20 01:04:52;;;;;;;;;;;7.30;99.90;;;;;;4939568;29;19910;-75
2023/04/20 01:07:18;;;;;;;;;;;7.40;99.90;;;;;;4926737;29;19937;-75
2023/04/20 01:09:43;;;;;;;;;;;7.40;99.90;;;;;;4947949;29;19914;-75
2023/04/20 01:12:10;;;;;;;;;;;7.50;99.90;;;;;;4937357;29;19926;-75
2023/04/20 01:14:36;;;;;;;;;;;7.50;99.90;;;;;;4935396;29;19965;-75
2023/04/20 01:17:04;;;;;;;;;;;7.40;99.90;;;;;;4934791;29;20281;-75
2023/04/20 01:19:31;;;;;;;;;;;7.40;99.90;;;;;;4936606;29;20295;-75
2023/04/20 01:21:57;;;;;;;;;;;7.50;99.90;;;;;;4937040;29;19977;-75
2023/04/20 01:24:23;;;;;;;;;;;7.50;99.90;;;;;;4929304;29;19923;-75
2023/04/20 01:26:48;;;;;;;;;;;7.40;99.90;;;;;;4938087;29;20255;-75
2023/04/20 01:29:14;;;;;;;;;;;7.40;99.90;;;;;;4929018;29;20232;-75
2023/04/20 01:31:40;;;;;;;;;;;7.50;99.90;;;;;;4943859;29;19961;-75
2023/04/20 01:34:05;;;;;;;;;;;7.50;99.90;;;;;;4934651;29;19956;-75
2023/04/20 01:36:32;;;;;;;;;;;7.60;99.90;;;;;;4946542;28;19982;-75
2023/04/20 01:38:59;;;;;;;;;;;7.60;99.90;;;;;;4919188;29;19911;-75
2023/04/20 01:41:25;;;;;;;;;;;7.60;99.90;;;;;;4933134;29;20312;-76
2023/04/20 01:43:51;;;;;;;;;;;7.50;99.90;;;;;;4919572;29;20005;-75
2023/04/20 01:46:17;;;;;;;;;;;7.60;99.90;;;;;;4940534;29;19918;-75
2023/04/20 01:48:42;;;;;;;;;;;7.60;99.90;;;;;;4924092;29;19923;-75
2023/04/20 01:51:08;;;;;;;;;;;7.60;99.90;;;;;;4921016;29;19914;-75
2023/04/20 01:53:34;;;;;;;;;;;7.60;99.90;;;;;;4950066;28;19914;-75
2023/04/20 01:56:00;;;;;;;;;;;7.60;99.90;;;;;;4925669;29;19921;-75
2023/04/20 01:58:26;;;;;;;;;;;7.70;99.90;;;;;;4950373;29;19910;-75
2023/04/20 02:00:51;;;;;;;;;;;7.70;99.90;;;;;;4934016;29;19962;-75
2023/04/20 02:03:17;;;;;;;;;;;7.70;99.90;;;;;;4943242;28;19918;-75
2023/04/20 02:05:43;;;;;;;;;;;7.70;99.90;;;;;;4929350;29;19925;-75
2023/04/20 02:08:08;;;;;;;;;;;7.70;99.90;;;;;;4949457;28;19911;-75
2023/04/20 02:10:34;;;;;;;;;;;7.60;99.90;;;;;;4941563;28;20240;-75
2023/04/20 02:13:00;;;;;;;;;;;7.70;99.90;;;;;;4935768;29;20320;-75
2023/04/20 02:15:25;;;;;;;;;;;7.60;99.90;;;;;;4932720;29;19965;-75
2023/04/20 02:17:51;;;;;;;;;;;7.70;99.90;;;;;;4954813;29;19976;-75
2023/04/20 02:20:18;;;;;;;;;;;7.70;99.90;;;;;;4949192;29;19977;-75
2023/04/20 02:22:44;;;;;;;;;;;7.70;99.90;;;;;;4935863;29;19946;-75
2023/04/20 02:25:11;;;;;;;;;;;7.60;99.90;;;;;;4915337;29;20576;-75
2023/04/20 02:27:37;;;;;;;;;;;7.70;99.90;;;;;;4933817;29;19925;-75
2023/04/20 02:30:03;;;;;;;;;;;7.70;99.90;;;;;;4945931;28;20256;-75
2023/04/20 02:32:28;;;;;;;;;;;7.70;99.90;;;;;;4934387;29;19917;-75
2023/04/20 02:34:54;;;;;;;;;;;7.70;99.90;;;;;;4936111;29;19969;-75
2023/04/20 02:37:19;;;;;;;;;;;7.80;99.90;;;;;;4937401;29;19977;-75
2023/04/20 02:39:45;;;;;;;;;;;7.80;99.90;;;;;;4912749;29;20296;-75
2023/04/20 02:42:11;;;;;;;;;;;7.70;99.90;;;;;;4933877;29;20261;-76
2023/04/20 02:44:36;;;;;;;;;;;7.70;99.90;;;;;;4949833;29;19910;-76
2023/04/20 02:47:02;;;;;;;;;;;7.70;99.90;;;;;;4911754;29;19922;-76
2023/04/20 02:49:28;;;;;;;;;;;7.80;99.90;;;;;;4928015;29;19919;-76
2023/04/20 02:51:53;;;;;;;;;;;7.80;99.90;;;;;;4927174;29;19914;-76
2023/04/20 02:54:19;;;;;;;;;;;7.80;99.90;;;;;;4926104;29;20098;-76
2023/04/20 02:56:45;;;;;;;;;;;7.80;99.90;;;;;;4933944;29;19914;-76
2023/04/20 02:59:11;;;;;;;;;;;7.80;99.90;;;;;;4931267;29;19926;-76
2023/04/20 03:01:36;;;;;;;;;;;7.90;99.90;;;;;;4955203;29;19910;-76
2023/04/20 03:04:03;;;;;;;;;;;7.80;99.90;;;;;;4928127;29;20352;-76
2023/04/20 03:06:29;;;;;;;;;;;7.80;99.90;;;;;;4943112;29;19937;-76
2023/04/20 03:08:55;;;;;;;;;;;7.70;99.90;;;;;;4923328;29;20021;-76
2023/04/20 03:11:20;;;;;;;;;;;7.80;99.90;;;;;;4945005;29;20021;-76
2023/04/20 03:13:46;;;;;;;;;;;7.70;99.90;;;;;;4950089;28;20005;-75
2023/04/20 03:16:12;;;;;;;;;;;7.70;99.90;;;;;;4947210;28;19914;-76
2023/04/20 03:18:39;;;;;;;;;;;7.80;99.90;;;;;;4948479;28;19914;-76
2023/04/20 03:21:04;;;;;;;;;;;7.80;99.90;;;;;;4951429;29;19910;-76
2023/04/20 03:23:30;;;;;;;;;;;7.80;99.90;;;;;;4934349;29;19957;-76
2023/04/20 03:25:56;;;;;;;;;;;7.80;99.90;;;;;;4946187;29;19918;-76
2023/04/20 03:28:22;;;;;;;;;;;7.80;99.90;;;;;;4926143;29;19914;-76
2023/04/20 03:30:47;;;;;;;;;;;7.80;99.90;;;;;;4935349;29;19922;-76
2023/04/20 03:33:13;;;;;;;;;;;7.90;99.90;;;;;;4949973;29;19914;-76
2023/04/20 03:35:39;;;;;;;;;;;7.90;99.90;;;;;;4946974;29;19919;-76
2023/04/20 03:38:05;;;;;;;;;;;7.90;99.90;;;;;;4943260;29;19915;-76
2023/04/20 03:40:30;;;;;;;;;;;7.80;99.90;;;;;;4941965;29;19919;-76
2023/04/20 03:42:56;;;;;;;;;;;7.80;99.90;;;;;;4933318;29;19917;-75
2023/04/20 03:45:22;;;;;;;;;;;7.80;99.90;;;;;;4946399;28;19925;-76
2023/04/20 03:47:47;;;;;;;;;;;7.80;99.90;;;;;;4926773;29;20314;-75
2023/04/20 03:50:13;;;;;;;;;;;7.90;99.90;;;;;;4935591;29;19915;-76
2023/04/20 03:52:39;;;;;;;;;;;7.90;99.90;;;;;;4946028;29;20304;-76
2023/04/20 03:55:05;;;;;;;;;;;7.90;99.90;;;;;;4930382;29;20324;-76
2023/04/20 03:57:31;;;;;;;;;;;7.90;99.90;;;;;;4954566;29;19914;-76
2023/04/20 03:59:57;;;;;;;;;;;7.80;99.90;;;;;;4933750;29;20312;-75
2023/04/20 04:02:23;;;;;;;;;;;7.80;99.90;;;;;;4946709;29;19981;-76
2023/04/20 04:04:49;;;;;;;;;;;7.80;99.90;;;;;;4932081;29;20304;-76
2023/04/20 04:07:15;;;;;;;;;;;7.90;99.90;;;;;;4941649;29;19918;-75
2023/04/20 04:09:40;;;;;;;;;;;7.90;99.90;;;;;;4946534;29;20284;-76
2023/04/20 04:12:06;;;;;;;;;;;7.90;99.90;;;;;;4927536;29;19926;-76
2023/04/20 04:14:32;;;;;;;;;;;7.80;99.90;;;;;;4935328;29;19918;-76
2023/04/20 04:16:59;;;;;;;;;;;7.80;99.90;;;;;;4931960;29;20013;-76
2023/04/20 04:19:24;;;;;;;;;;;7.80;99.90;;;;;;4957997;29;20749;-76
2023/04/20 04:21:50;;;;;;;;;;;7.90;99.90;;;;;;4922171;29;19917;-76
2023/04/20 04:24:16;;;;;;;;;;;7.80;99.90;;;;;;4952679;29;20391;-76
2023/04/20 04:26:42;;;;;;;;;;;7.80;99.90;;;;;;4924117;29;19914;-76
2023/04/20 04:29:09;;;;;;;;;;;7.80;99.90;;;;;;4940842;29;19974;-76
2023/04/20 04:31:34;;;;;;;;;;;7.80;99.90;;;;;;4938716;29;19993;-75
2023/04/20 04:34:01;;;;;;;;;;;7.80;99.90;;;;;;4929852;29;20339;-76
2023/04/20 04:36:26;;;;;;;;;;;7.80;99.90;;;;;;4929971;29;19915;-76
2023/04/20 04:38:52;;;;;;;;;;;7.70;99.90;;;;;;4943502;28;20005;-76
2023/04/20 04:41:18;;;;;;;;;;;7.70;99.90;;;;;;4946352;29;19965;-75
2023/04/20 04:43:43;;;;;;;;;;;7.70;99.90;;;;;;4946576;28;19911;-75
2023/04/20 04:46:09;;;;;;;;;;;7.70;99.90;;;;;;4925544;29;20001;-75
2023/04/20 04:48:35;;;;;;;;;;;7.70;99.90;;;;;;4939661;29;19972;-75
2023/04/20 04:51:01;;;;;;;;;;;7.70;99.90;;;;;;4952514;29;20326;-75
2023/04/20 04:53:27;;;;;;;;;;;7.70;99.90;;;;;;4957429;28;19957;-75
2023/04/20 04:55:52;;;;;;;;;;;7.70;99.90;;;;;;4940727;28;19926;-75
2023/04/20 04:58:18;;;;;;;;;;;7.70;99.90;;;;;;4924170;29;19910;-75
2023/04/20 05:00:44;;;;;;;;;;;7.70;99.90;;;;;;4948587;29;19911;-75
2023/04/20 05:03:09;;;;;;;;;;;7.80;99.90;;;;;;4938372;29;19915;-75
2023/04/20 05:05:35;;;;;;;;;;;7.80;99.90;;;;;;4941994;29;19911;-75
2023/04/20 05:08:01;;;;;;;;;;;7.80;99.90;;;;;;4934938;29;19941;-75
2023/04/20 05:10:26;;;;;;;;;;;7.70;99.90;;;;;;4956404;28;20324;-75
2023/04/20 05:12:52;;;;;;;;;;;7.60;99.90;;;;;;4936887;29;20347;-75
2023/04/20 05:15:18;;;;;;;;;;;7.70;99.90;;;;;;4930197;29;19914;-75
2023/04/20 05:17:43;;;;;;;;;;;7.70;99.90;;;;;;4947466;29;19933;-75
2023/04/20 05:20:10;;;;;;;;;;;7.60;99.90;;;;;;4927381;29;19960;-75
2023/04/20 05:22:36;;;;;;;;;;;7.70;99.90;;;;;;4945621;29;20659;-75
2023/04/20 05:25:02;;;;;;;;;;;7.60;99.90;;;;;;4940820;29;19914;-75
2023/04/20 05:27:28;;;;;;;;;;;7.60;99.90;;;;;;4918738;29;19910;-75
2023/04/20 05:29:54;;;;;;;;;;;7.60;99.90;;;;;;4948754;28;19925;-74
2023/04/20 05:32:19;;;;;;;;;;;7.70;99.90;;;;;;4946133;28;20061;-74
2023/04/20 05:34:45;;;;;;;;;;;7.70;99.90;;;;;;4947168;29;19925;-74
2023/04/20 05:37:11;;;;;;;;;;;7.60;99.90;;;;;;4946791;28;19914;-75
2023/04/20 05:39:36;;;;;;;;;;;7.60;99.90;;;;;;4933563;29;19921;-76
2023/04/20 05:42:02;;;;;;;;;;;7.70;99.90;;;;;;4938110;29;19915;-75
2023/04/20 05:44:28;;;;;;;;;;;7.60;99.90;;;;;;4919622;29;19951;-74
2023/04/20 05:46:53;;;;;;;;;;;7.60;99.90;;;;;;4927491;29;19914;-74
2023/04/20 05:49:19;;;;;;;;;;;7.60;99.90;;;;;;4944479;29;19921;-75
2023/04/20 05:51:46;;;;;;;;;;;7.70;99.90;;;;;;4935737;29;19926;-75
2023/04/20 05:54:11;;;;;;;;;;;7.60;99.90;;;;;;4930888;29;19910;-75
2023/04/20 05:56:37;;;;;;;;;;;7.50;99.90;;;;;;4927101;29;19914;-75
2023/04/20 05:59:03;;;;;;;;;;;7.60;99.90;;;;;;4937418;29;19985;-75
2023/04/20 06:01:28;;;;;;;;;;;7.70;99.90;;;;;;4929631;29;20304;-75
2023/04/20 06:03:54;;;;;;;;;;;7.60;99.90;;;;;;4937584;29;19911;-75
2023/04/20 06:06:19;;;;;;;;;;;7.70;99.90;;;;;;4934185;29;20313;-75
2023/04/20 06:08:45;;;;;;;;;;;7.70;99.90;;;;;;4923718;29;19914;-75
2023/04/20 06:11:11;;;;;;;;;;;7.80;99.90;;;;;;4947581;29;19918;-75
2023/04/20 06:13:36;;;;;;;;;;;7.80;99.90;;;;;;4913243;29;20324;-76
2023/04/20 06:16:02;;;;;;;;;;;7.80;99.90;;;;;;4944997;29;19915;-72
2023/04/20 06:18:28;;;;;;;;;;;7.80;99.90;;;;;;4948598;29;19969;-71
2023/04/20 06:20:54;;;;;;;;;;;7.80;99.90;;;;;;4924528;29;19925;-73
2023/04/20 06:23:20;;;;;;;;;;;7.90;99.90;;;;;;4924934;29;19961;-72
2023/04/20 06:25:45;;;;;;;;;;;7.80;99.90;;;;;;4931954;29;19954;-72
2023/04/20 06:28:11;;;;;;;;;;;7.80;99.90;;;;;;4921239;29;19910;-74
2023/04/20 06:30:37;;;;;;;;;;;7.90;99.90;;;;;;4920217;29;19922;-72
2023/04/20 06:33:02;;;;;;;;;;;7.90;99.90;;;;;;4915518;29;19910;-72
2023/04/20 06:35:28;;;;;;;;;;;8.00;99.90;;;;;;4925626;29;20517;-72
2023/04/20 06:37:56;;;;;;;;;;;8.00;99.90;;;;;;4911491;29;19914;-72
2023/04/20 06:40:22;;;;;;;;;;;8.10;99.90;;;;;;4942882;28;19992;-72
2023/04/20 06:42:48;;;;;;;;;;;8.10;99.90;;;;;;4925151;29;19914;-72
2023/04/20 06:45:13;;;;;;;;;;;8.10;99.90;;;;;;4949973;29;19929;-72
2023/04/20 06:47:40;;;;;;;;;;;8.00;99.90;;;;;;4951617;29;19922;-72
2023/04/20 06:50:08;;;;;;;;;;;8.00;99.90;;;;;;4922717;29;20244;-71
2023/04/20 06:52:37;;;;;;;;;;;8.00;99.90;;;;;;4930376;29;19946;-71
2023/04/20 06:55:03;;;;;;;;;;;8.10;99.90;;;;;;4944684;29;19918;-72
2023/04/20 06:57:29;;;;;;;;;;;8.00;99.90;;;;;;4942783;29;19915;-72
2023/04/20 06:59:55;;;;;;;;;;;8.00;99.90;;;;;;4904453;29;19918;-72
2023/04/20 07:02:22;;;;;;;;;;;7.90;99.90;;;;;;4927503;29;20327;-72
2023/04/20 07:04:47;;;;;;;;;;;7.90;99.90;;;;;;4946593;29;19922;-72
2023/04/20 07:07:13;;;;;;;;;;;7.90;99.90;;;;;;4927494;29;19915;-72
2023/04/20 07:09:38;;;;;;;;;;;8.00;99.90;;;;;;4925690;29;20074;-72
2023/04/20 07:12:04;;;;;;;;;;;7.90;99.90;;;;;;4937773;29;20742;-71
2023/04/20 07:14:30;;;;;;;;;;;8.10;99.90;;;;;;4930096;29;19914;-71
2023/04/20 07:16:55;;;;;;;;;;;8.20;99.90;;;;;;4933574;29;19953;-72
2023/04/20 07:19:21;;;;;;;;;;;8.20;99.90;;;;;;4940086;29;19925;-72
2023/04/20 07:21:47;;;;;;;;;;;8.30;99.90;;;;;;4920719;29;20347;-72
2023/04/20 07:24:12;;;;;;;;;;;8.40;99.90;;;;;;4942837;29;19949;-71
2023/04/20 07:26:39;;;;;;;;;;;8.50;99.90;;;;;;4941985;29;20051;-72
2023/04/20 07:29:04;;;;;;;;;;;8.60;99.90;;;;;;4928122;29;19954;-71
2023/04/20 07:31:30;;;;;;;;;;;8.50;99.90;;;;;;4934077;29;19918;-72
2023/04/20 07:33:56;;;;;;;;;;;8.60;99.90;;;;;;4927487;29;19957;-72
2023/04/20 07:36:23;;;;;;;;;;;8.50;99.90;;;;;;4943514;28;20388;-72
2023/04/20 07:38:48;;;;;;;;;;;8.50;99.90;;;;;;4930617;29;19925;-72
2023/04/20 07:41:15;;;;;;;;;;;8.60;99.90;;;;;;4941870;29;19945;-72
2023/04/20 07:43:41;;;;;;;;;;;8.50;99.90;;;;;;4922109;29;20406;-72
2023/04/20 07:46:06;;;;;;;;;;;8.50;99.90;;;;;;4929806;29;19918;-72
2023/04/20 07:48:32;;;;;;;;;;;8.50;99.90;;;;;;4945866;29;19914;-72
2023/04/20 07:50:58;;;;;;;;;;;8.60;99.90;;;;;;4943142;28;19919;-72
2023/04/20 07:53:26;;;;;;;;;;;8.60;99.90;;;;;;4944095;29;20569;-72
2023/04/20 07:55:51;;;;;;;;;;;8.60;99.90;;;;;;4931900;29;19922;-72
2023/04/20 07:58:17;;;;;;;;;;;8.70;99.90;;;;;;4933298;29;19974;-72
2023/04/20 08:00:46;;;;;;;;;;;8.70;99.90;;;;;;4951168;28;19945;-72
2023/04/20 08:03:12;;;;;;;;;;;8.70;99.90;;;;;;4937301;29;20016;-72
2023/04/20 08:05:40;;;;;;;;;;;8.70;99.90;;;;;;4950962;29;19915;-72
2023/04/20 08:08:05;;;;;;;;;;;8.80;99.90;;;;;;4915411;29;19922;-73
2023/04/20 08:10:31;;;;;;;;;;;8.80;99.90;;;;;;4934699;29;20005;-72
2023/04/20 08:12:58;;;;;;;;;;;8.80;99.90;;;;;;4928516;29;19973;-73
2023/04/20 08:15:23;;;;;;;;;;;8.80;99.90;;;;;;4925663;29;20603;-72
2023/04/20 08:17:49;;;;;;;;;;;8.70;99.90;;;;;;4927533;29;19915;-73
2023/04/20 08:20:15;;;;;;;;;;;8.60;99.90;;;;;;4929729;29;19919;-72
2023/04/20 08:22:41;;;;;;;;;;;8.50;99.90;;;;;;4949860;29;20364;-73
2023/04/20 08:25:06;;;;;;;;;;;8.70;99.90;;;;;;4932245;29;19914;-75
2023/04/20 08:27:32;;;;;;;;;;;9.00;99.90;;;;;;4944631;29;19914;-75
2023/04/20 08:29:58;;;;;;;;;;;9.20;99.90;;;;;;4926159;29;19915;-75
2023/04/20 08:32:25;;;;;;;;;;;9.40;99.90;;;;;;4924296;29;19922;-75
2023/04/20 08:34:51;;;;;;;;;;;9.50;99.90;;;;;;4927537;29;20001;-75
2023/04/20 08:37:17;;;;;;;;;;;9.60;99.90;;;;;;4933828;29;19911;-75
2023/04/20 08:39:43;;;;;;;;;;;9.80;99.90;;;;;;4911324;29;19925;-75
2023/04/20 08:42:09;;;;;;;;;;;9.80;99.90;;;;;;4928830;29;19915;-75
2023/04/20 08:44:34;;;;;;;;;;;9.90;99.90;;;;;;4910598;29;19918;-75
2023/04/20 08:47:00;;;;;;;;;;;10.00;99.90;;;;;;4948900;28;19911;-75
2023/04/20 08:49:26;;;;;;;;;;;10.20;99.90;;;;;;4914617;29;19911;-75
2023/04/20 08:51:53;;;;;;;;;;;10.30;99.90;;;;;;4926941;29;20018;-75
2023/04/20 08:54:19;;;;;;;;;;;10.30;99.90;;;;;;4941005;29;19983;-75
2023/04/20 08:56:45;;;;;;;;;;;10.40;99.90;;;;;;4938114;29;20417;-75
2023/04/20 08:59:13;;;;;;;;;;;10.40;99.90;;;;;;4930246;29;19950;-74
2023/04/20 09:01:40;;;;;;;;;;;10.50;99.90;;;;;;4928849;29;19911;-75
2023/04/20 09:04:19;;;;;;;;;;;10.50;99.90;;;;;;4916950;29;19922;-75
2023/04/20 09:06:45;;;;;;;;;;;10.60;99.90;;;;;;4926901;29;19922;-75
2023/04/20 09:09:11;;;;;;;;;;;10.60;99.90;;;;;;4932663;29;20395;-75
2023/04/20 09:11:37;;;;;;;;;;;10.70;99.90;;;;;;4936127;28;19922;-74
2023/04/20 09:14:08;;;;;;;;;;;10.70;99.90;;;;;;4920957;29;20018;-74
2023/04/20 09:16:38;;;;;;;;;;;10.80;99.90;;;;;;4920411;29;19911;-74
2023/04/20 09:19:04;;;;;;;;;;;10.90;99.90;;;;;;4936766;29;19922;-74
2023/04/20 09:21:30;;;;;;;;;;;10.80;99.90;;;;;;4926455;29;19914;-74
2023/04/20 09:23:59;;;;;;;;;;;10.80;99.90;;;;;;4931748;29;19926;-74
2023/04/20 09:26:25;;;;;;;;;;;10.80;99.90;;;;;;4921563;29;19921;-74
2023/04/20 09:28:51;;;;;;;;;;;10.90;99.90;;;;;;4918177;29;19915;-74
2023/04/20 09:31:20;;;;;;;;;;;11.10;99.90;;;;;;4926086;29;19927;-74
2023/04/20 09:33:59;;;;;;;;;;;11.20;99.90;;;;;;4933155;29;19915;-74
2023/04/20 09:36:34;;;;;;;;;;;11.20;99.90;;;;;;4926767;29;19922;-75
2023/04/20 09:39:02;;;;;;;;;;;11.30;99.90;;;;;;4925690;29;20033;-74
2023/04/20 09:41:28;;;;;;;;;;;11.30;99.90;;;;;;4931663;29;19914;-74
2023/04/20 09:43:54;;;;;;;;;;;11.30;99.90;;;;;;4932439;29;20330;-74
2023/04/20 09:46:19;;;;;;;;;;;11.40;99.90;;;;;;4925540;29;19915;-75
2023/04/20 09:48:45;;;;;;;;;;;11.50;99.90;;;;;;4909904;29;19911;-75
2023/04/20 09:51:11;;;;;;;;;;;11.40;99.90;;;;;;4938326;29;19915;-76
2023/04/20 09:53:36;;;;;;;;;;;11.50;99.90;;;;;;4914000;29;20240;-75
2023/04/20 09:56:03;;;;;;;;;;;11.60;99.90;;;;;;4937739;29;20342;-75
2023/04/20 09:58:30;;;;;;;;;;;11.70;99.90;;;;;;4920830;29;19911;-75
2023/04/20 10:00:55;;;;;;;;;;;11.80;99.90;;;;;;4953396;29;19918;-75
2023/04/20 10:03:21;;;;;;;;;;;11.80;99.90;;;;;;4942688;29;20305;-75
2023/04/20 10:05:47;;;;;;;;;;;11.80;99.90;;;;;;4928126;29;20291;-75
2023/04/20 10:08:12;;;;;;;;;;;11.80;99.90;;;;;;4947829;29;19911;-75
2023/04/20 10:10:42;;;;;;;;;;;11.80;99.90;;;;;;4923981;29;19914;-74
2023/04/20 10:13:07;;;;;;;;;;;11.90;99.90;;;;;;4936019;28;19992;-74
2023/04/20 10:15:36;;;;;;;;;;;12.10;99.90;;;;;;4919947;29;19972;-74
2023/04/20 10:18:13;;;;;;;;;;;12.20;99.90;;;;;;4919796;29;19911;-75
2023/04/20 10:20:38;;;;;;;;;;;12.30;99.90;;;;;;4918440;29;19911;-74
2023/04/20 10:23:13;;;;;;;;;;;12.30;99.90;;;;;;4930448;29;20236;-74
2023/04/20 10:25:39;;;;;;;;;;;12.30;99.90;;;;;;4940165;29;20359;-72
2023/04/20 10:28:07;;;;;;;;;;;11.90;98.00;;;;;;4939415;29;19915;-72
2023/04/20 10:30:34;;;;;;;;;;;11.60;99.50;;;;;;4944620;29;19953;-72
2023/04/20 10:33:02;;;;;;;;;;;11.50;98.20;;;;;;4931274;29;19922;-72
2023/04/20 10:35:28;;;;;;;;;;;11.30;99.00;;;;;;4938843;28;20312;-72
2023/04/20 10:37:54;;;;;;;;;;;11.20;99.60;;;;;;4943578;29;19965;-72
2023/04/20 10:40:26;;;;;;;;;;;11.30;99.60;;;;;;4918491;29;20051;-72
2023/04/20 10:42:52;;;;;;;;;;;11.10;98.20;;;;;;4944003;29;19953;-72
2023/04/20 10:45:17;;;;;;;;;;;11.10;98.30;;;;;;4943736;29;19996;-72
2023/04/20 10:47:44;;;;;;;;;;;11.40;99.90;;;;;;4946270;29;19919;-72
2023/04/20 10:50:13;;;;;;;;;;;11.70;99.80;;;;;;4908424;29;20237;-73
2023/04/20 10:52:40;;;;;;;;;;;11.90;98.50;;;;;;4943943;29;19918;-72
2023/04/20 10:55:05;;;;;;;;;;;11.80;97.60;;;;;;4902398;29;20316;-72
2023/04/20 10:57:31;;;;;;;;;;;11.70;98.00;;;;;;4939095;29;19985;-72
2023/04/20 10:59:57;;;;;;;;;;;11.80;99.10;;;;;;4920839;29;19973;-73
2023/04/20 11:02:23;;;;;;;;;;;12.00;99.40;;;;;;4932136;28;20023;-72
2023/04/20 11:04:48;;;;;;;;;;;12.20;98.30;;;;;;4941980;29;20248;-73
2023/04/20 11:07:14;;;;;;;;;;;12.20;98.00;;;;;;4935036;28;19918;-73
2023/04/20 11:09:41;;;;;;;;;;;12.20;98.00;;;;;;4931181;29;20057;-73
2023/04/20 11:12:07;;;;;;;;;;;12.40;97.40;;;;;;4915051;29;20037;-73
2023/04/20 11:14:34;;;;;;;;;;;12.40;96.80;;;;;;4921866;29;19977;-73
2023/04/20 11:16:59;;;;;;;;;;;12.40;96.90;;;;;;4940237;29;19976;-73
2023/04/20 11:19:26;;;;;;;;;;;12.40;97.20;;;;;;4946225;29;20364;-73
2023/04/20 11:21:52;;;;;;;;;;;12.80;98.00;;;;;;4936109;28;19911;-73
2023/04/20 11:24:21;;;;;;;;;;;13.20;98.10;;;;;;4925673;29;19921;-73
2023/04/20 11:26:51;;;;;;;;;;;13.30;95.60;;;;;;4941371;29;19914;-72
2023/04/20 11:29:27;;;;;;;;;;;13.10;94.40;;;;;;4933938;29;19945;-73
2023/04/20 11:31:52;;;;;;;;;;;13.10;94.10;;;;;;4904223;29;19977;-72
2023/04/20 11:34:20;;;;;;;;;;;12.60;94.80;;;;;;4947788;29;19973;-73
2023/04/20 11:36:45;;;;;;;;;;;12.60;94.10;;;;;;4929106;29;20320;-73
2023/04/20 11:39:15;;;;;;;;;;;12.60;94.90;;;;;;4920788;29;19958;-73
2023/04/20 11:41:41;;;;;;;;;;;12.50;94.00;;;;;;4941968;28;19946;-72
2023/04/20 11:44:07;;;;;;;;;;;12.30;93.80;;;;;;4945260;28;20472;-74
2023/04/20 11:46:33;;;;;;;;;;;12.20;94.40;;;;;;4946375;29;19962;-75
2023/04/20 11:48:59;;;;;;;;;;;12.10;94.20;;;;;;4918578;29;20288;-76
2023/04/20 11:51:27;;;;;;;;;;;12.10;94.90;;;;;;4932782;29;19986;-76
2023/04/20 11:53:53;;;;;;;;;;;12.10;95.10;;;;;;4931041;29;20355;-75
2023/04/20 11:56:19;;;;;;;;;;;12.20;96.20;;;;;;4931961;29;20525;-76
2023/04/20 11:58:45;;;;;;;;;;;12.20;95.70;;;;;;4948223;29;20350;-75
2023/04/20 12:01:12;;;;;;;;;;;12.20;95.30;;;;;;4941945;29;19911;-75
2023/04/20 12:03:37;;;;;;;;;;;12.20;96.30;;;;;;4931946;29;19914;-75
2023/04/20 12:06:03;;;;;;;;;;;12.20;96.80;;;;;;4924322;29;19978;-75
2023/04/20 12:08:29;;;;;;;;;;;12.00;96.30;;;;;;4925520;29;20048;-75
2023/04/20 12:10:54;;;;;;;;;;;12.10;97.30;;;;;;4921068;29;19918;-76
2023/04/20 12:13:20;;;;;;;;;;;12.10;97.40;;;;;;4942136;29;19918;-75
2023/04/20 12:15:47;;;;;;;;;;;11.90;96.00;;;;;;4934107;29;20005;-76
2023/04/20 12:18:13;;;;;;;;;;;11.90;95.80;;;;;;4915714;29;19989;-76
2023/04/20 12:20:39;;;;;;;;;;;11.90;96.60;;;;;;4910748;29;19915;-76
2023/04/20 12:23:05;;;;;;;;;;;11.90;96.20;;;;;;4922955;29;20593;-76
2023/04/20 12:25:31;;;;;;;;;;;11.90;95.60;;;;;;4937423;29;19911;-76
2023/04/20 12:27:57;;;;;;;;;;;11.90;96.70;;;;;;4926318;29;19926;-75
2023/04/20 12:30:24;;;;;;;;;;;11.90;95.80;;;;;;4941554;29;19915;-76
2023/04/20 12:32:49;;;;;;;;;;;11.90;96.20;;;;;;4949410;29;20001;-76
2023/04/20 12:35:15;;;;;;;;;;;11.90;96.90;;;;;;4936892;29;20001;-75
2023/04/20 12:37:41;;;;;;;;;;;11.90;96.10;;;;;;4948194;29;19946;-76
2023/04/20 12:40:07;;;;;;;;;;;11.80;94.80;;;;;;4948170;28;19926;-76
2023/04/20 12:42:33;;;;;;;;;;;11.80;95.40;;;;;;4928489;29;20009;-76
2023/04/20 12:44:58;;;;;;;;;;;11.80;96.20;;;;;;4944711;29;19997;-76
2023/04/20 12:47:24;;;;;;;;;;;11.70;96.80;;;;;;4925265;29;19911;-76
2023/04/20 12:49:49;;;;;;;;;;;11.60;95.70;;;;;;4945734;29;19926;-75
2023/04/20 12:55:22;;;;;;;;;;;11.70;96.50;;;;;;4689795;28;20274;-74
2023/04/20 12:57:48;;;;;;;;;;;11.60;96.00;;;;;;4957012;29;19910;-74
2023/04/20 13:00:14;;;;;;;;;;;11.50;96.40;;;;;;4956755;29;19945;-74
2023/04/20 13:02:41;;;;;;;;;;;11.50;96.40;;;;;;4957252;28;19915;-73
2023/04/20 13:05:07;;;;;;;;;;;11.40;96.90;;;;;;4956644;29;19910;-73
2023/04/20 13:07:33;;;;;;;;;;;11.30;97.20;;;;;;4940759;28;19914;-73
2023/04/20 13:09:59;;;;;;;;;;;11.40;96.20;;;;;;4957726;29;19914;-73
2023/04/20 13:12:25;;;;;;;;;;;11.30;96.50;;;;;;4940655;29;19989;-74
2023/04/20 13:14:51;;;;;;;;;;;11.30;96.50;;;;;;4940211;29;19965;-73
2023/04/20 13:17:17;;;;;;;;;;;11.20;96.90;;;;;;4957098;28;19914;-73
2023/04/20 13:19:45;;;;;;;;;;;11.10;96.50;;;;;;4955682;29;20238;-74
2023/04/20 13:22:11;;;;;;;;;;;11.20;97.00;;;;;;4951491;28;19915;-74
2023/04/20 13:24:37;;;;;;;;;;;11.20;96.90;;;;;;4954828;29;19973;-74
2023/04/20 13:27:03;;;;;;;;;;;11.20;97.50;;;;;;4940227;29;20311;-74
2023/04/20 13:29:32;;;;;;;;;;;11.20;97.50;;;;;;4939726;29;19914;-73
2023/04/20 13:31:58;;;;;;;;;;;11.10;97.90;;;;;;4940220;29;20024;-74
2023/04/20 13:34:23;;;;;;;;;;;11.00;98.80;;;;;;4938586;29;19986;-71
2023/04/20 13:36:50;;;;;;;;;;;10.90;99.50;;;;;;4954719;29;20414;-70
2023/04/20 13:39:18;;;;;;;;;;;10.80;99.90;;;;;;4955333;28;20322;-70
2023/04/20 13:41:44;;;;;;;;;;;10.80;99.90;;;;;;4948774;28;20254;-70
2023/04/20 13:44:14;;;;;;;;;;;10.80;99.90;;;;;;4964660;28;19925;-71
2023/04/20 13:46:43;;;;;;;;;;;10.90;99.90;;;;;;4944064;29;20307;-71
2023/04/20 13:49:09;;;;;;;;;;;10.80;99.90;;;;;;4955743;29;19950;-71
2023/04/20 13:51:35;;;;;;;;;;;10.80;99.90;;;;;;4953633;28;19957;-71
2023/04/20 13:54:00;;;;;;;;;;;10.70;99.90;;;;;;4954900;29;20005;-70
2023/04/20 13:56:26;;;;;;;;;;;10.60;99.90;;;;;;4954993;29;20704;-71
2023/04/20 13:58:51;;;;;;;;;;;10.60;99.90;;;;;;4954045;29;19925;-71
2023/04/20 14:01:17;;;;;;;;;;;10.70;99.90;;;;;;4954792;29;19972;-71
2023/04/20 14:03:43;;;;;;;;;;;10.70;99.90;;;;;;4938846;29;19918;-71
2023/04/20 14:06:09;;;;;;;;;;;10.70;99.90;;;;;;4955647;28;20224;-71
2023/04/20 14:08:35;;;;;;;;;;;10.60;99.90;;;;;;4955387;29;19926;-71
2023/04/20 14:11:00;;;;;;;;;;;10.40;99.90;;;;;;4954869;29;19922;-71
2023/04/20 14:13:26;;;;;;;;;;;10.30;99.90;;;;;;4938469;29;20338;-71
2023/04/20 14:15:52;;;;;;;;;;;10.40;99.90;;;;;;4955785;29;19954;-71
2023/04/20 14:18:17;;;;;;;;;;;10.40;99.90;;;;;;4960106;28;20028;-71
2023/04/20 14:20:48;;;;;;;;;;;10.50;99.90;;;;;;4959495;28;19913;-71
2023/04/20 14:23:15;;;;;;;;;;;10.50;99.90;;;;;;4964978;28;19914;-71